createdAt,value
2018-11-07T00:01:14.860Z,9.79
2018-11-07T00:03:43.528Z,9.78
2018-11-07T00:06:12.436Z,9.77
2018-11-07T00:08:41.148Z,9.78
2018-11-07T00:11:09.864Z,9.78
2018-11-07T00:13:38.565Z,9.80
2018-11-07T00:16:07.357Z,9.80
2018-11-07T00:18:36.052Z,9.78
2018-11-07T00:21:05.255Z,9.80
2018-11-07T00:23:34.437Z,9.83
2018-11-07T00:26:03.152Z,9.85
2018-11-07T00:28:32.126Z,9.87
2018-11-07T00:31:00.996Z,9.88
2018-11-07T00:33:29.824Z,9.88
2018-11-07T00:35:58.534Z,9.87
2018-11-07T00:38:27.233Z,9.85
2018-11-07T00:40:56.193Z,9.87
2018-11-07T00:43:24.898Z,9.88
2018-11-07T00:45:53.629Z,9.88
2018-11-07T00:48:22.348Z,9.85
2018-11-07T00:50:51.048Z,9.84
2018-11-07T00:53:19.756Z,9.85
2018-11-07T00:56:10.867Z,9.85
2018-11-07T00:58:39.708Z,9.87
2018-11-07T01:01:27.976Z,9.87
2018-11-07T01:06:50.625Z,9.87
2018-11-07T01:09:19.379Z,9.87
2018-11-07T01:11:48.142Z,9.89
2018-11-07T01:14:16.844Z,9.89
2018-11-07T01:16:45.711Z,9.89
2018-11-07T01:19:14.371Z,9.91
2018-11-07T01:21:43.091Z,9.91
2018-11-07T01:24:11.986Z,9.93
2018-11-07T01:26:40.724Z,9.95
2018-11-07T01:29:09.516Z,9.99
2018-11-07T01:31:38.382Z,10.02
2018-11-07T01:34:07.359Z,10.05
2018-11-07T01:36:36.083Z,10.09
2018-11-07T01:39:07.142Z,10.13
2018-11-07T01:41:35.912Z,10.17
2018-11-07T01:44:05.059Z,10.22
2018-11-07T01:46:33.760Z,10.26
2018-11-07T01:49:02.563Z,10.32
2018-11-07T01:51:31.557Z,10.35
2018-11-07T01:54:00.272Z,10.40
2018-11-07T01:56:28.979Z,10.43
2018-11-07T01:58:58.208Z,10.48
2018-11-07T02:01:27.388Z,10.53
2018-11-07T02:03:56.208Z,10.57
2018-11-07T02:06:24.920Z,10.62
2018-11-07T02:08:53.636Z,10.67
2018-11-07T02:11:22.337Z,10.71
2018-11-07T02:13:51.042Z,10.73
2018-11-07T02:16:19.760Z,10.75
2018-11-07T02:18:48.484Z,10.77
2018-11-07T02:21:17.319Z,10.79
2018-11-07T02:23:46.300Z,10.82
2018-11-07T02:26:15.315Z,10.82
2018-11-07T02:28:44.284Z,10.81
2018-11-07T02:31:13.157Z,10.82
2018-11-07T02:33:41.864Z,10.82
2018-11-07T02:36:10.753Z,10.83
2018-11-07T02:38:39.409Z,10.80
2018-11-07T02:41:08.143Z,10.78
2018-11-07T02:43:37.032Z,10.75
2018-11-07T02:46:06.384Z,10.71
2018-11-07T02:48:55.257Z,10.70
2018-11-07T02:51:37.771Z,10.66
2018-11-07T02:54:06.516Z,10.66
2018-11-07T02:56:35.231Z,10.64
2018-11-07T02:59:04.883Z,10.62
2018-11-07T03:01:34.342Z,10.59
2018-11-07T03:04:03.060Z,10.56
2018-11-07T03:06:31.784Z,10.53
2018-11-07T03:09:00.519Z,10.49
2018-11-07T03:11:29.236Z,10.48
2018-11-07T03:13:57.943Z,10.47
2018-11-07T03:16:33.267Z,10.48
2018-11-07T03:19:02.000Z,10.49
2018-11-07T03:21:30.712Z,10.48
2018-11-07T03:23:59.443Z,10.48
2018-11-07T03:26:28.176Z,10.50
2018-11-07T03:28:56.908Z,10.51
2018-11-07T03:34:22.248Z,10.54
2018-11-07T03:36:51.270Z,10.57
2018-11-07T03:39:19.981Z,10.60
2018-11-07T03:41:48.704Z,10.61
2018-11-07T03:44:17.420Z,10.62
2018-11-07T03:46:46.185Z,10.63
2018-11-07T03:49:14.904Z,10.63
2018-11-07T03:51:43.612Z,10.65
2018-11-07T03:54:12.348Z,10.63
2018-11-07T03:56:41.062Z,10.65
2018-11-07T03:59:10.075Z,10.61
2018-11-07T04:01:38.808Z,10.56
2018-11-07T04:04:07.496Z,10.54
2018-11-07T04:06:36.222Z,10.49
2018-11-07T04:09:08.500Z,10.46
2018-11-07T04:11:37.347Z,10.43
2018-11-07T04:14:06.088Z,10.40
2018-11-07T04:16:34.852Z,10.39
2018-11-07T04:19:03.571Z,10.33
2018-11-07T04:21:32.533Z,10.29
2018-11-07T04:24:02.528Z,10.26
2018-11-07T04:26:32.640Z,10.22
2018-11-07T04:29:01.667Z,10.25
2018-11-07T04:31:30.924Z,10.25
2018-11-07T04:33:59.852Z,10.26
2018-11-07T04:36:28.594Z,10.28
2018-11-07T04:38:57.318Z,10.28
2018-11-07T04:41:26.012Z,10.24
2018-11-07T04:43:54.700Z,10.26
2018-11-07T04:46:23.439Z,10.28
2018-11-07T04:48:52.400Z,10.28
2018-11-07T04:51:21.130Z,10.27
2018-11-07T04:53:49.865Z,10.28
2018-11-07T04:56:18.588Z,10.28
2018-11-07T04:58:47.284Z,10.27
2018-11-07T05:01:16.092Z,10.25
2018-11-07T05:03:44.829Z,10.23
2018-11-07T05:06:13.545Z,10.20
2018-11-07T05:08:42.507Z,10.18
2018-11-07T05:11:11.320Z,10.15
2018-11-07T05:16:33.365Z,10.05
2018-11-07T05:19:02.367Z,10.01
2018-11-07T05:21:31.376Z,9.99
2018-11-07T05:24:00.169Z,9.95
2018-11-07T05:26:28.850Z,9.96
2018-11-07T05:28:57.915Z,9.96
2018-11-07T05:31:26.872Z,9.96
2018-11-07T05:33:55.897Z,9.99
2018-11-07T05:36:24.613Z,10.02
2018-11-07T05:38:53.339Z,10.05
2018-11-07T05:41:22.079Z,10.10
2018-11-07T05:43:51.092Z,10.17
2018-11-07T05:46:19.827Z,10.18
2018-11-07T05:48:48.591Z,10.17
2018-11-07T05:51:17.427Z,10.16
2018-11-07T05:53:46.316Z,10.14
2018-11-07T05:56:15.030Z,10.12
2018-11-07T05:58:43.977Z,10.11
2018-11-07T06:01:12.767Z,10.09
2018-11-07T06:03:41.488Z,10.06
2018-11-07T06:06:10.204Z,10.04
2018-11-07T06:08:38.913Z,10.01
2018-11-07T06:11:08.764Z,10.00
2018-11-07T06:13:37.477Z,9.96
2018-11-07T06:16:07.047Z,9.92
2018-11-07T06:18:35.755Z,9.90
2018-11-07T06:21:05.295Z,9.90
2018-11-07T06:23:34.036Z,9.88
2018-11-07T06:26:02.773Z,9.87
2018-11-07T06:28:31.485Z,9.83
2018-11-07T06:31:00.194Z,9.85
2018-11-07T06:33:29.232Z,9.86
2018-11-07T06:35:57.971Z,9.90
2018-11-07T06:38:26.668Z,9.93
2018-11-07T06:40:55.369Z,9.96
2018-11-07T06:43:24.082Z,9.98
2018-11-07T06:45:52.792Z,9.98
2018-11-07T06:48:21.524Z,10.00
2018-11-07T06:50:50.235Z,10.05
2018-11-07T06:53:18.966Z,10.07
2018-11-07T06:55:47.866Z,10.10
2018-11-07T06:58:16.866Z,10.14
2018-11-07T07:00:45.724Z,10.17
2018-11-07T07:03:14.438Z,10.16
2018-11-07T07:05:43.143Z,10.17
2018-11-07T07:08:11.858Z,10.18
2018-11-07T07:10:40.775Z,10.19
2018-11-07T07:13:09.691Z,10.18
2018-11-07T07:15:38.375Z,10.17
2018-11-07T07:18:07.150Z,10.21
2018-11-07T07:20:35.804Z,10.24
2018-11-07T07:23:04.928Z,10.29
2018-11-07T07:25:33.666Z,10.33
2018-11-07T07:28:02.350Z,10.35
2018-11-07T07:30:31.111Z,10.38
2018-11-07T07:32:59.908Z,10.41
2018-11-07T07:35:28.570Z,10.45
2018-11-07T07:37:57.370Z,10.47
2018-11-07T07:40:26.080Z,10.53
2018-11-07T07:43:06.057Z,10.55
2018-11-07T07:45:34.805Z,10.59
2018-11-07T07:48:03.496Z,10.64
2018-11-07T07:50:32.195Z,10.67
2018-11-07T07:53:00.958Z,10.74
2018-11-07T07:55:29.628Z,10.80
2018-11-07T07:57:58.331Z,10.87
2018-11-07T08:00:27.069Z,10.92
2018-11-07T08:02:55.873Z,10.99
2018-11-07T08:05:24.578Z,11.05
2018-11-07T08:07:53.424Z,11.10
2018-11-07T08:10:22.646Z,11.14
2018-11-07T08:12:51.711Z,11.22
2018-11-07T08:15:20.560Z,11.28
2018-11-07T08:17:49.253Z,11.33
2018-11-07T08:20:18.791Z,11.38
2018-11-07T08:22:48.222Z,11.43
2018-11-07T08:25:17.153Z,11.49
2018-11-07T08:27:45.841Z,11.54
2018-11-07T08:30:15.756Z,11.59
2018-11-07T08:32:44.480Z,11.62
2018-11-07T08:35:13.990Z,11.70
2018-11-07T08:37:44.208Z,11.74
2018-11-07T08:40:16.248Z,11.77
2018-11-07T08:42:44.986Z,11.80
2018-11-07T08:45:14.032Z,11.84
2018-11-07T08:47:43.384Z,11.89
2018-11-07T08:50:14.252Z,11.95
2018-11-07T08:52:43.873Z,12.01
2018-11-07T08:55:14.182Z,12.05
2018-11-07T08:57:42.718Z,12.13
2018-11-07T09:00:13.537Z,12.18
2018-11-07T09:02:43.130Z,12.23
2018-11-07T09:05:12.526Z,12.27
2018-11-07T09:07:42.013Z,12.32
2018-11-07T09:10:12.086Z,12.36
2018-11-07T09:12:41.038Z,12.40
2018-11-07T09:15:12.886Z,12.46
2018-11-07T09:17:41.932Z,12.53
2018-11-07T09:20:13.872Z,12.57
2018-11-07T09:22:53.044Z,12.65
2018-11-07T09:25:21.763Z,12.72
2018-11-07T09:27:50.472Z,12.71
2018-11-07T09:30:20.572Z,12.79
2018-11-07T09:32:49.348Z,12.87
2018-11-07T09:35:18.445Z,12.92
2018-11-07T09:37:47.161Z,13.01
2018-11-07T09:40:17.992Z,13.09
2018-11-07T09:42:47.388Z,13.15
2018-11-07T09:45:17.400Z,13.24
2018-11-07T09:47:46.589Z,13.28
2018-11-07T09:50:16.209Z,13.32
2018-11-07T09:52:45.336Z,13.35
2018-11-07T09:55:15.304Z,13.37
2018-11-07T09:57:57.137Z,13.40
2018-11-07T10:00:25.822Z,13.41
2018-11-07T10:02:54.548Z,13.46
2018-11-07T10:05:23.270Z,13.54
2018-11-07T10:07:52.000Z,13.62
2018-11-07T10:10:21.753Z,13.70
2018-11-07T10:12:50.649Z,13.75
2018-11-07T10:15:19.770Z,13.77
2018-11-07T10:17:48.496Z,13.79
2018-11-07T10:20:19.473Z,13.81
2018-11-07T10:22:48.697Z,13.85
2018-11-07T10:25:17.659Z,13.92
2018-11-07T10:27:47.159Z,13.97
2018-11-07T10:30:16.930Z,14.02
2018-11-07T10:32:47.007Z,14.06
2018-11-07T10:35:15.781Z,14.09
2018-11-07T10:37:44.732Z,14.15
2018-11-07T10:40:15.353Z,14.22
2018-11-07T10:42:44.458Z,14.30
2018-11-07T10:45:13.288Z,14.37
2018-11-07T10:47:43.155Z,14.45
2018-11-07T10:50:12.803Z,14.50
2018-11-07T10:52:42.384Z,14.53
2018-11-07T10:55:12.240Z,14.55
2018-11-07T10:57:41.121Z,14.60
2018-11-07T11:00:16.477Z,14.68
2018-11-07T11:02:47.502Z,14.74
2018-11-07T11:05:17.692Z,14.78
2018-11-07T11:07:46.368Z,14.84
2018-11-07T11:10:15.280Z,14.93
2018-11-07T11:12:44.891Z,15.03
2018-11-07T11:15:13.596Z,15.11
2018-11-07T11:17:42.303Z,15.16
2018-11-07T11:20:12.479Z,15.23
2018-11-07T11:22:41.446Z,15.30
2018-11-07T11:25:10.594Z,15.38
2018-11-07T11:27:39.641Z,15.49
2018-11-07T11:30:09.077Z,15.55
2018-11-07T11:32:38.004Z,15.60
2018-11-07T11:35:07.608Z,15.65
2018-11-07T11:37:36.238Z,15.70
2018-11-07T11:40:06.099Z,15.74
2018-11-07T11:42:35.647Z,15.80
2018-11-07T11:45:05.488Z,15.85
2018-11-07T11:47:34.194Z,15.93
2018-11-07T11:50:03.060Z,16.00
2018-11-07T11:52:31.992Z,16.07
2018-11-07T11:55:00.709Z,16.13
2018-11-07T11:57:29.433Z,16.20
2018-11-07T12:02:54.689Z,16.26
2018-11-07T12:05:23.412Z,16.30
2018-11-07T12:07:52.114Z,16.33
2018-11-07T12:10:23.481Z,16.33
2018-11-07T12:12:55.431Z,16.39
2018-11-07T12:18:20.652Z,16.48
2018-11-07T12:20:49.620Z,16.48
2018-11-07T12:23:18.328Z,16.47
2018-11-07T12:25:47.035Z,16.53
2018-11-07T12:28:15.740Z,16.57
2018-11-07T12:30:44.715Z,16.61
2018-11-07T12:33:13.413Z,16.63
2018-11-07T12:35:42.118Z,16.69
2018-11-07T12:38:10.833Z,16.70
2018-11-07T12:40:39.824Z,16.68
2018-11-07T12:43:08.548Z,16.67
2018-11-07T12:48:37.659Z,16.78
2018-11-07T12:51:28.192Z,16.82
2018-11-07T12:54:08.464Z,16.86
2018-11-07T12:56:58.596Z,16.82
2018-11-07T12:59:40.503Z,16.79
2018-11-07T13:02:15.901Z,16.84
2018-11-07T13:04:44.947Z,16.81
2018-11-07T13:07:13.608Z,16.81
2018-11-07T13:09:42.313Z,16.79
2018-11-07T13:15:06.428Z,16.74
2018-11-07T13:17:35.384Z,16.74
2018-11-07T13:20:07.265Z,16.67
2018-11-07T13:22:36.126Z,16.68
2018-11-07T13:25:05.480Z,16.62
2018-11-07T13:27:34.229Z,16.60
2018-11-07T13:30:02.949Z,16.58
2018-11-07T13:32:31.669Z,16.58
2018-11-07T13:35:00.425Z,16.58
2018-11-07T13:37:29.358Z,16.57
2018-11-07T13:39:57.836Z,16.56
2018-11-07T13:42:26.557Z,16.51
2018-11-07T13:44:55.511Z,16.49
2018-11-07T13:47:24.219Z,16.48
2018-11-07T13:49:52.912Z,16.46
2018-11-07T13:52:21.653Z,16.42
2018-11-07T13:54:50.372Z,16.42
2018-11-07T13:57:19.106Z,16.43
2018-11-07T13:59:47.805Z,16.43
2018-11-07T14:02:16.528Z,16.48
2018-11-07T14:04:45.463Z,16.54
2018-11-07T14:07:14.321Z,16.60
2018-11-07T14:09:43.047Z,16.68
2018-11-07T14:12:12.020Z,16.74
2018-11-07T14:14:40.732Z,16.78
2018-11-07T14:17:09.467Z,16.82
2018-11-07T14:19:38.433Z,16.86
2018-11-07T14:22:07.312Z,16.89
2018-11-07T14:24:36.039Z,16.88
2018-11-07T14:27:04.777Z,16.87
2018-11-07T14:29:33.494Z,16.90
2018-11-07T14:32:02.363Z,16.90
2018-11-07T14:34:31.056Z,16.88
2018-11-07T14:36:59.812Z,16.89
2018-11-07T14:39:28.722Z,16.86
2018-11-07T14:41:57.407Z,16.83
2018-11-07T14:44:26.117Z,16.84
2018-11-07T14:46:54.876Z,16.80
2018-11-07T14:49:23.520Z,16.72
2018-11-07T14:51:52.227Z,16.64
2018-11-07T14:54:21.204Z,16.60
2018-11-07T14:56:49.869Z,16.52
2018-11-07T14:59:18.580Z,16.43
2018-11-07T15:01:47.292Z,16.37
2018-11-07T15:04:16.205Z,16.34
2018-11-07T15:06:44.914Z,16.28
2018-11-07T15:09:13.661Z,16.21
2018-11-07T15:11:43.425Z,16.15
2018-11-07T15:14:12.305Z,16.08
2018-11-07T15:16:41.009Z,16.05
2018-11-07T15:19:09.781Z,16.00
2018-11-07T15:21:38.480Z,15.95
2018-11-07T15:24:07.188Z,15.91
2018-11-07T15:26:35.893Z,15.90
2018-11-07T15:29:04.995Z,15.89
2018-11-07T15:31:33.943Z,15.84
2018-11-07T15:34:02.681Z,15.82
2018-11-07T15:36:31.422Z,15.79
2018-11-07T15:39:00.240Z,15.73
2018-11-07T15:41:28.972Z,15.70
2018-11-07T15:43:57.677Z,15.67
2018-11-07T15:46:26.395Z,15.64
2018-11-07T15:48:55.105Z,15.60
2018-11-07T15:51:29.326Z,15.56
2018-11-07T15:53:58.029Z,15.51
2018-11-07T15:56:26.720Z,15.48
2018-11-07T15:58:55.444Z,15.46
2018-11-07T16:01:24.151Z,15.45
2018-11-07T16:03:56.313Z,15.45
2018-11-07T16:06:25.581Z,15.46
2018-11-07T16:08:58.936Z,15.45
2018-11-07T16:11:29.092Z,15.45
2018-11-07T16:13:57.800Z,15.45
2018-11-07T16:16:27.404Z,15.44
2018-11-07T16:18:56.396Z,15.43
2018-11-07T16:21:25.193Z,15.42
2018-11-07T16:23:54.338Z,15.42
2018-11-07T16:26:23.052Z,15.42
2018-11-07T16:28:51.800Z,15.42
2018-11-07T16:31:20.797Z,15.42
2018-11-07T16:36:47.641Z,15.37
2018-11-07T16:39:16.621Z,15.33
2018-11-07T16:41:45.775Z,15.35
2018-11-07T16:44:20.163Z,15.34
2018-11-07T16:46:49.821Z,15.33
2018-11-07T16:49:18.488Z,15.32
2018-11-07T16:51:47.399Z,15.31
2018-11-07T16:54:17.593Z,15.25
2018-11-07T16:56:46.382Z,15.25
2018-11-07T16:59:15.456Z,15.22
2018-11-07T17:01:44.063Z,15.19
2018-11-07T17:04:12.971Z,15.20
2018-11-07T17:06:41.776Z,15.19
2018-11-07T17:09:11.924Z,15.16
2018-11-07T17:11:41.380Z,15.13
2018-11-07T17:14:10.264Z,15.12
2018-11-07T17:16:39.179Z,15.10
2018-11-07T17:19:07.919Z,15.06
2018-11-07T17:21:36.868Z,15.04
2018-11-07T17:24:06.006Z,14.99
2018-11-07T17:26:34.741Z,14.94
2018-11-07T17:29:03.400Z,14.88
2018-11-07T17:31:32.204Z,14.83
2018-11-07T17:34:00.828Z,14.77
2018-11-07T17:36:29.564Z,14.73
2018-11-07T17:38:58.584Z,14.65
2018-11-07T17:41:27.276Z,14.60
2018-11-07T17:43:55.993Z,14.57
2018-11-07T17:46:24.908Z,14.53
2018-11-07T17:48:53.621Z,14.49
2018-11-07T17:51:22.608Z,14.49
2018-11-07T17:53:51.357Z,14.47
2018-11-07T17:56:20.095Z,14.44
2018-11-07T17:58:49.000Z,14.41
2018-11-07T18:01:17.956Z,14.41
2018-11-07T18:03:47.056Z,14.39
2018-11-07T18:06:15.952Z,14.41
2018-11-07T18:08:44.669Z,14.37
2018-11-07T18:11:30.626Z,14.36
2018-11-07T18:14:19.607Z,14.35
2018-11-07T18:16:48.526Z,14.32
2018-11-07T18:19:17.207Z,14.26
2018-11-07T18:24:42.541Z,14.28
2018-11-07T18:27:11.321Z,14.29
2018-11-07T18:29:40.002Z,14.29
2018-11-07T18:38:12.581Z,14.27
2018-11-07T18:40:41.572Z,14.30
2018-11-07T18:43:13.581Z,14.29
2018-11-07T18:45:43.467Z,14.28
2018-11-07T18:48:12.382Z,14.26
2018-11-07T18:50:41.142Z,14.23
2018-11-07T18:53:09.806Z,14.20
2018-11-07T18:55:38.631Z,14.20
2018-11-07T18:58:07.635Z,14.22
2018-11-07T19:00:37.196Z,14.24
2018-11-07T19:03:07.428Z,14.27
2018-11-07T19:05:36.396Z,14.26
2018-11-07T19:08:05.399Z,14.27
2018-11-07T19:10:34.105Z,14.29
2018-11-07T19:13:03.080Z,14.27
2018-11-07T19:15:31.798Z,14.28
2018-11-07T19:18:00.760Z,14.31
2018-11-07T19:20:29.527Z,14.30
2018-11-07T19:22:58.212Z,14.30
2018-11-07T19:25:26.957Z,14.27
2018-11-07T19:27:55.680Z,14.30
2018-11-07T19:36:11.980Z,14.33
2018-11-07T19:38:45.824Z,14.34
2018-11-07T19:41:15.147Z,14.37
2018-11-07T19:43:44.040Z,14.39
2018-11-07T19:46:12.752Z,14.39
2018-11-07T19:48:41.477Z,14.43
2018-11-07T19:51:10.230Z,14.43
2018-11-07T19:53:39.284Z,14.44
2018-11-07T19:56:08.199Z,14.44
2018-11-07T19:58:37.359Z,14.43
2018-11-07T20:01:06.241Z,14.45
2018-11-07T20:03:34.935Z,14.44
2018-11-07T20:06:03.637Z,14.46
2018-11-07T20:08:32.352Z,14.46
2018-11-07T20:11:01.227Z,14.47
2018-11-07T20:13:30.199Z,14.45
2018-11-07T20:15:59.209Z,14.46
2018-11-07T20:18:27.913Z,14.46
2018-11-07T20:20:56.632Z,14.47
2018-11-07T20:23:25.472Z,14.47
2018-11-07T20:25:54.072Z,14.46
2018-11-07T20:28:22.990Z,14.47
2018-11-07T20:30:51.697Z,14.44
2018-11-07T20:33:20.601Z,14.40
2018-11-07T20:35:49.885Z,14.41
2018-11-07T20:38:19.126Z,14.41
2018-11-07T20:40:47.824Z,14.42
2018-11-07T20:43:16.545Z,14.42
2018-11-07T20:45:45.285Z,14.40
2018-11-07T20:48:14.288Z,14.39
2018-11-07T20:50:43.025Z,14.38
2018-11-07T20:53:11.925Z,14.40
2018-11-07T20:55:40.692Z,14.40
2018-11-07T20:58:09.600Z,14.40
2018-11-07T21:00:38.593Z,14.37
2018-11-07T21:03:07.960Z,14.36
2018-11-07T21:05:36.872Z,14.35
2018-11-07T21:08:05.883Z,14.35
2018-11-07T21:10:34.882Z,14.33
2018-11-07T21:13:03.857Z,14.34
2018-11-07T21:15:32.870Z,14.31
2018-11-07T21:18:01.838Z,14.33
2018-11-07T21:20:30.543Z,14.29
2018-11-07T21:22:59.256Z,14.31
2018-11-07T21:25:27.976Z,14.30
2018-11-07T21:27:56.884Z,14.28
2018-11-07T21:30:25.615Z,14.28
2018-11-07T21:32:54.565Z,14.28
2018-11-07T21:35:23.267Z,14.26
2018-11-07T21:37:51.980Z,14.27
2018-11-07T21:40:21.162Z,14.26
2018-11-07T21:42:49.988Z,14.22
2018-11-07T21:45:18.728Z,14.22
2018-11-07T21:47:47.631Z,14.18
2018-11-07T21:50:17.074Z,14.18
2018-11-07T21:52:45.761Z,14.18
2018-11-07T21:55:14.721Z,14.15
2018-11-07T21:57:43.464Z,14.15
2018-11-07T22:00:14.369Z,14.13
2018-11-07T22:02:43.621Z,14.12
2018-11-07T22:05:12.918Z,14.11
2018-11-07T22:07:41.694Z,14.10
2018-11-07T22:10:11.580Z,14.08
2018-11-07T22:12:40.287Z,14.03
2018-11-07T22:15:09.717Z,14.00
2018-11-07T22:17:38.595Z,13.97
2018-11-07T22:20:11.304Z,13.96
2018-11-07T22:22:40.873Z,13.93
2018-11-07T22:25:09.624Z,13.94
2018-11-07T22:27:38.328Z,13.93
2018-11-07T22:30:08.827Z,13.94
2018-11-07T22:32:37.815Z,13.92
2018-11-07T22:35:07.133Z,13.93
2018-11-07T22:37:36.796Z,13.90
2018-11-07T22:40:07.601Z,13.88
2018-11-07T22:42:36.941Z,13.84
2018-11-07T22:45:05.775Z,13.85
2018-11-07T22:47:34.643Z,13.84
2018-11-07T22:50:03.645Z,13.84
2018-11-07T22:52:32.456Z,13.80
2018-11-07T22:55:01.195Z,13.80
2018-11-07T22:57:30.051Z,13.78
2018-11-07T22:59:59.004Z,13.79
2018-11-07T23:02:27.728Z,13.73
2018-11-07T23:04:56.687Z,13.73
2018-11-07T23:07:25.635Z,13.71
2018-11-07T23:09:54.346Z,13.72
2018-11-07T23:12:23.050Z,13.72
2018-11-07T23:14:51.864Z,13.70
2018-11-07T23:17:20.684Z,13.69
2018-11-07T23:19:49.408Z,13.65
2018-11-07T23:22:18.123Z,13.65
2018-11-07T23:24:46.821Z,13.64
2018-11-07T23:27:15.525Z,13.64
2018-11-07T23:29:44.416Z,13.64
2018-11-07T23:32:14.926Z,13.62
2018-11-07T23:34:43.629Z,13.57
2018-11-07T23:37:12.351Z,13.57
2018-11-07T23:39:41.297Z,13.55
2018-11-07T23:42:10.017Z,13.55
2018-11-07T23:44:38.715Z,13.54
2018-11-07T23:47:07.444Z,13.53
2018-11-07T23:49:36.361Z,13.53
2018-11-07T23:52:05.824Z,13.52
2018-11-07T23:54:34.536Z,13.50
2018-11-07T23:57:03.256Z,13.42
2018-11-07T23:59:31.983Z,13.47
